createdAt,value
2024-03-12T00:04:39.391Z,78.16
2024-03-12T00:09:42.411Z,78.64
2024-03-12T00:14:45.912Z,78.87
2024-03-12T00:19:53.417Z,78.38
2024-03-12T00:24:56.411Z,78.20
2024-03-12T00:29:59.725Z,78.56
2024-03-12T00:35:04.647Z,78.10
2024-03-12T00:40:12.296Z,79.43
2024-03-12T00:45:21.246Z,79.93
2024-03-12T00:50:25.875Z,79.06
2024-03-12T00:55:29.605Z,79.29
2024-03-12T01:00:35.042Z,79.29
2024-03-12T01:05:40.681Z,79.34
2024-03-12T01:10:44.061Z,79.82
2024-03-12T01:15:49.368Z,80.02
2024-03-12T01:20:54.508Z,80.08
2024-03-12T01:25:58.178Z,79.71
2024-03-12T01:31:01.787Z,80.24
2024-03-12T01:36:19.706Z,80.83
2024-03-12T01:41:22.841Z,80.01
2024-03-12T01:46:25.785Z,79.90
2024-03-12T01:51:31.581Z,80.16
2024-03-12T01:56:34.596Z,80.05
2024-03-12T02:01:37.990Z,79.88
2024-03-12T02:06:43.633Z,79.65
2024-03-12T02:11:46.614Z,79.66
2024-03-12T02:16:51.983Z,79.48
2024-03-12T02:21:56.578Z,79.67
2024-03-12T02:27:00.967Z,79.72
2024-03-12T02:32:03.963Z,79.74
2024-03-12T02:37:07.101Z,79.72
2024-03-12T02:42:12.464Z,79.68
2024-03-12T02:47:15.388Z,79.69
2024-03-12T02:52:18.439Z,80.04
2024-03-12T02:57:23.698Z,80.23
2024-03-12T03:02:27.219Z,80.01
2024-03-12T03:07:30.180Z,79.83
2024-03-12T03:12:34.777Z,80.84
2024-03-12T03:17:37.829Z,81.10
2024-03-12T03:22:41.619Z,81.86
2024-03-12T03:27:46.119Z,86.57
2024-03-12T03:32:49.647Z,87.45
2024-03-12T03:37:52.681Z,92.05
2024-03-12T03:42:57.822Z,90.34
2024-03-12T03:48:01.028Z,91.70
2024-03-12T03:53:04.021Z,91.39
2024-03-12T03:58:08.658Z,93.05
2024-03-12T04:03:11.697Z,94.91
2024-03-12T04:08:15.652Z,99.77
2024-03-12T04:13:20.005Z,94.60
2024-03-12T04:18:23.912Z,91.81
2024-03-12T04:23:26.864Z,90.34
2024-03-12T04:28:31.212Z,89.40
2024-03-12T04:33:34.803Z,91.30
2024-03-12T04:38:37.931Z,90.25
2024-03-12T04:43:43.171Z,90.08
2024-03-12T04:48:47.638Z,90.82
2024-03-12T04:53:50.807Z,91.41
2024-03-12T04:58:55.212Z,89.96
2024-03-12T05:04:02.118Z,89.31
2024-03-12T05:09:07.443Z,89.25
2024-03-12T05:14:11.762Z,89.04
2024-03-12T05:19:15.066Z,89.41
2024-03-12T05:24:20.071Z,92.91
2024-03-12T05:29:34.263Z,97.67
2024-03-12T05:34:40.737Z,97.93
2024-03-12T05:40:01.523Z,100.00
2024-03-12T05:45:21.073Z,100.00
2024-03-12T05:50:24.032Z,100.00
2024-03-12T05:55:27.053Z,100.00
2024-03-12T06:00:31.764Z,100.00
2024-03-12T06:05:34.705Z,100.00
2024-03-12T06:10:37.705Z,100.00
2024-03-12T06:15:42.148Z,100.00
2024-03-12T06:20:47.123Z,100.00
2024-03-12T06:25:50.171Z,100.00
2024-03-12T06:30:55.081Z,100.00
2024-03-12T06:35:58.132Z,100.00
2024-03-12T06:41:01.143Z,100.00
2024-03-12T06:46:05.644Z,100.00
2024-03-12T06:51:08.682Z,100.00
2024-03-12T06:56:12.780Z,100.00
2024-03-12T07:01:17.312Z,100.00
2024-03-12T07:06:20.958Z,100.00
2024-03-12T07:11:27.067Z,100.00
2024-03-12T07:16:31.986Z,100.00
2024-03-12T07:21:35.851Z,100.00
2024-03-12T07:26:38.821Z,100.00
2024-03-12T07:31:43.212Z,100.00
2024-03-12T07:36:47.097Z,100.00
2024-03-12T07:41:50.128Z,100.00
2024-03-12T07:46:56.047Z,100.00
2024-03-12T07:52:00.041Z,100.00
2024-03-12T07:57:03.318Z,100.00
2024-03-12T08:02:12.768Z,100.00
2024-03-12T08:07:16.916Z,100.00
2024-03-12T08:12:20.774Z,100.00
2024-03-12T08:17:27.153Z,100.00
2024-03-12T08:22:30.583Z,99.76
2024-03-12T08:27:33.747Z,100.00
2024-03-12T08:32:38.664Z,95.58
2024-03-12T08:37:41.719Z,95.88
2024-03-12T08:42:50.958Z,92.28
2024-03-12T08:48:02.010Z,89.13
2024-03-12T08:53:05.760Z,92.72
2024-03-12T08:58:09.221Z,96.63
2024-03-12T09:03:13.622Z,96.34
2024-03-12T09:08:18.560Z,100.00
2024-03-12T09:13:21.569Z,94.55
2024-03-12T09:18:27.668Z,97.53
2024-03-12T09:23:32.316Z,98.96
2024-03-12T09:28:37.394Z,99.88
2024-03-12T09:33:42.204Z,99.84
2024-03-12T09:38:47.851Z,100.00
2024-03-12T09:43:52.418Z,100.00
2024-03-12T09:48:56.962Z,100.00
2024-03-12T09:53:59.984Z,100.00
2024-03-12T09:59:04.013Z,100.00
2024-03-12T10:04:09.222Z,100.00
2024-03-12T10:09:18.294Z,100.00
2024-03-12T10:14:23.352Z,100.00
2024-03-12T10:19:30.963Z,100.00
2024-03-12T10:24:34.082Z,100.00
2024-03-12T10:29:38.237Z,100.00
2024-03-12T10:34:42.800Z,100.00
2024-03-12T10:39:45.780Z,100.00
2024-03-12T10:44:50.035Z,96.58
2024-03-12T10:49:57.754Z,93.75
2024-03-12T10:55:05.939Z,97.00
2024-03-12T11:00:16.667Z,98.24
2024-03-12T11:05:23.065Z,97.01
2024-03-12T11:10:27.871Z,93.66
2024-03-12T11:15:32.640Z,97.65
2024-03-12T11:20:40.937Z,94.31
2024-03-12T11:25:49.796Z,95.57
2024-03-12T11:31:03.274Z,93.92
2024-03-12T11:36:10.461Z,91.35
2024-03-12T11:41:13.960Z,91.12
2024-03-12T11:46:21.788Z,92.37
2024-03-12T11:51:56.239Z,92.00
2024-03-12T11:56:59.319Z,95.10
2024-03-12T12:02:04.072Z,93.77
2024-03-12T12:07:10.042Z,92.51
2024-03-12T12:12:15.280Z,96.40
2024-03-12T12:17:23.908Z,100.00
2024-03-12T12:22:29.550Z,97.58
2024-03-12T12:27:34.009Z,96.89
2024-03-12T12:32:38.739Z,91.89
2024-03-12T12:37:47.150Z,89.60
2024-03-12T12:42:52.389Z,91.43
2024-03-12T12:47:56.059Z,93.94
2024-03-12T12:53:02.116Z,93.68
2024-03-12T12:58:07.832Z,94.59
2024-03-12T13:03:17.575Z,95.18
2024-03-12T13:08:24.354Z,95.66
2024-03-12T13:13:28.833Z,96.54
2024-03-12T13:18:31.966Z,99.05
2024-03-12T13:23:37.771Z,100.00
2024-03-12T13:28:41.146Z,100.00
2024-03-12T13:33:44.904Z,100.00
2024-03-12T13:38:50.942Z,100.00
2024-03-12T13:43:56.039Z,100.00
2024-03-12T13:49:13.107Z,100.00
2024-03-12T13:54:18.816Z,100.00
2024-03-12T13:59:22.098Z,100.00
2024-03-12T14:04:30.249Z,100.00
2024-03-12T14:09:36.729Z,100.00
2024-03-12T14:14:39.716Z,100.00
2024-03-12T14:19:43.273Z,100.00
2024-03-12T14:24:47.777Z,96.42
2024-03-12T14:29:50.825Z,95.75
2024-03-12T14:34:54.140Z,96.01
2024-03-12T14:39:58.689Z,92.75
2024-03-12T14:45:02.011Z,90.92
2024-03-12T14:50:05.453Z,92.37
2024-03-12T14:55:11.363Z,92.49
2024-03-12T15:00:17.849Z,96.25
2024-03-12T15:05:21.649Z,93.25
2024-03-12T15:10:26.151Z,91.32
2024-03-12T15:15:29.177Z,90.24
2024-03-12T15:20:32.183Z,92.22
2024-03-12T15:25:36.572Z,88.65
2024-03-12T15:30:41.449Z,87.09
2024-03-12T15:35:47.055Z,85.44
2024-03-12T15:40:52.207Z,85.33
2024-03-12T15:45:55.624Z,84.17
2024-03-12T15:50:59.613Z,84.40
2024-03-12T15:56:04.054Z,84.89
2024-03-12T16:01:08.893Z,84.09
2024-03-12T16:06:12.718Z,82.73
2024-03-12T16:11:17.594Z,84.61
2024-03-12T16:16:20.864Z,82.83
2024-03-12T16:21:23.823Z,82.64
2024-03-12T16:26:28.728Z,81.36
2024-03-12T16:31:31.773Z,81.04
2024-03-12T16:36:35.753Z,80.38
2024-03-12T16:41:40.368Z,79.90
2024-03-12T16:46:45.022Z,78.82
2024-03-12T16:51:49.679Z,78.08
2024-03-12T16:56:56.913Z,79.23
2024-03-12T17:02:01.840Z,80.15
2024-03-12T17:07:09.451Z,80.66
2024-03-12T17:12:15.819Z,80.58
2024-03-12T17:17:24.715Z,80.42
2024-03-12T17:22:28.288Z,80.36
2024-03-12T17:27:33.136Z,80.44
2024-03-12T17:32:37.144Z,80.40
2024-03-12T17:37:43.608Z,82.41
2024-03-12T17:42:49.193Z,83.26
2024-03-12T17:47:54.325Z,84.21
2024-03-12T17:53:01.665Z,84.57
2024-03-12T17:58:07.255Z,84.60
2024-03-12T18:03:11.340Z,84.43
2024-03-12T18:08:23.672Z,84.88
2024-03-12T18:13:28.826Z,85.22
2024-03-12T18:18:31.952Z,85.96
2024-03-12T18:23:36.250Z,86.46
2024-03-12T18:28:40.742Z,86.60
2024-03-12T18:33:43.713Z,86.40
2024-03-12T18:38:46.733Z,86.32
2024-03-12T18:43:51.197Z,86.13
2024-03-12T18:48:54.720Z,86.35
2024-03-12T18:53:59.497Z,86.75
2024-03-12T18:59:04.488Z,87.80
2024-03-12T19:04:08.786Z,88.16
2024-03-12T19:09:17.142Z,88.84
2024-03-12T19:14:22.773Z,89.42
2024-03-12T19:19:29.940Z,89.94
2024-03-12T19:24:32.894Z,90.69
2024-03-12T19:29:37.246Z,90.88
2024-03-12T19:34:41.171Z,91.72
2024-03-12T19:39:44.845Z,92.05
2024-03-12T19:44:51.307Z,91.94
2024-03-12T19:49:55.019Z,91.73
2024-03-12T19:54:58.052Z,92.02
2024-03-12T20:00:13.421Z,92.39
2024-03-12T20:05:17.573Z,92.55
2024-03-12T20:10:20.834Z,92.24
2024-03-12T20:15:25.861Z,92.62
2024-03-12T20:20:29.018Z,93.84
2024-03-12T20:25:32.782Z,94.39
2024-03-12T20:30:39.540Z,94.41
2024-03-12T20:35:45.058Z,94.26
2024-03-12T20:40:49.328Z,95.31
2024-03-12T20:45:53.958Z,95.09
2024-03-12T20:50:57.153Z,95.06
2024-03-12T20:56:00.182Z,94.87
2024-03-12T21:01:05.069Z,94.10
2024-03-12T21:06:09.717Z,93.81
2024-03-12T21:11:38.619Z,93.71
2024-03-12T21:16:42.961Z,93.16
2024-03-12T21:21:49.864Z,92.56
2024-03-12T21:26:53.163Z,91.87
2024-03-12T21:31:58.967Z,90.91
2024-03-12T21:37:03.903Z,90.81
2024-03-12T21:42:07.877Z,90.86
2024-03-12T21:47:12.965Z,90.47
2024-03-12T21:52:17.962Z,89.87
2024-03-12T21:57:23.026Z,89.74
2024-03-12T22:02:27.583Z,89.74
2024-03-12T22:07:32.796Z,89.86
2024-03-12T22:12:36.205Z,89.55
2024-03-12T22:17:40.731Z,90.15
2024-03-12T22:22:44.781Z,90.01
2024-03-12T22:27:49.018Z,90.42
2024-03-12T22:32:53.741Z,90.16
2024-03-12T22:37:57.407Z,89.73
2024-03-12T22:43:00.875Z,89.77
2024-03-12T22:48:07.018Z,90.15
2024-03-12T22:53:10.811Z,90.59
2024-03-12T22:58:15.543Z,90.67
2024-03-12T23:03:21.203Z,90.58
2024-03-12T23:08:29.707Z,91.17
2024-03-12T23:13:34.573Z,91.55
2024-03-12T23:18:40.747Z,91.73
2024-03-12T23:23:43.887Z,91.76
2024-03-12T23:28:47.175Z,92.50
2024-03-12T23:33:54.028Z,93.33
2024-03-12T23:38:57.294Z,94.06
2024-03-12T23:44:00.316Z,94.06
2024-03-12T23:49:07.642Z,94.01
2024-03-12T23:54:10.712Z,94.79
2024-03-12T23:59:13.700Z,94.79
